createdAt,value
2019-03-08T00:01:37.085Z,6.82
2019-03-08T00:04:08.107Z,6.73
2019-03-08T00:06:39.042Z,6.72
2019-03-08T00:09:10.042Z,6.70
2019-03-08T00:11:41.130Z,6.71
2019-03-08T00:14:12.894Z,6.67
2019-03-08T00:16:44.959Z,6.69
2019-03-08T00:19:15.850Z,6.60
2019-03-08T00:21:46.774Z,6.65
2019-03-08T00:24:17.689Z,6.60
2019-03-08T00:26:48.633Z,6.56
2019-03-08T00:29:19.720Z,6.57
2019-03-08T00:31:50.729Z,6.61
2019-03-08T00:34:21.692Z,6.52
2019-03-08T00:36:52.636Z,6.56
2019-03-08T00:39:23.574Z,6.48
2019-03-08T00:41:54.759Z,6.47
2019-03-08T00:44:25.650Z,6.43
2019-03-08T00:46:56.630Z,6.44
2019-03-08T00:49:27.605Z,6.44
2019-03-08T00:51:58.528Z,6.42
2019-03-08T00:54:29.744Z,6.38
2019-03-08T00:57:00.737Z,6.35
2019-03-08T00:59:31.653Z,6.29
2019-03-08T01:02:02.591Z,6.31
2019-03-08T01:04:34.583Z,6.26
2019-03-08T01:07:05.589Z,6.24
2019-03-08T01:09:36.494Z,6.23
2019-03-08T01:12:07.621Z,6.28
2019-03-08T01:14:39.459Z,6.17
2019-03-08T01:17:10.588Z,6.17
2019-03-08T01:19:41.637Z,6.14
2019-03-08T01:22:12.570Z,6.15
2019-03-08T01:24:43.486Z,6.14
2019-03-08T01:27:14.445Z,6.16
2019-03-08T01:29:45.388Z,6.08
2019-03-08T01:32:16.413Z,6.06
2019-03-08T01:34:47.341Z,6.07
2019-03-08T01:37:18.268Z,5.99
2019-03-08T01:39:49.167Z,5.98
2019-03-08T01:42:20.126Z,6.05
2019-03-08T01:44:51.123Z,6.01
2019-03-08T01:47:23.194Z,6.00
2019-03-08T01:49:54.118Z,5.96
2019-03-08T01:52:26.128Z,5.96
2019-03-08T01:54:57.115Z,5.92
2019-03-08T01:57:28.070Z,5.90
2019-03-08T01:59:59.008Z,5.85
2019-03-08T02:02:29.943Z,5.86
2019-03-08T02:05:00.861Z,5.81
2019-03-08T02:07:33.273Z,5.85
2019-03-08T02:10:07.089Z,5.83
2019-03-08T02:12:38.087Z,5.80
2019-03-08T02:15:15.255Z,5.87
2019-03-08T02:17:46.327Z,5.75
2019-03-08T02:20:20.011Z,5.77
2019-03-08T02:22:51.036Z,5.73
2019-03-08T02:25:22.030Z,5.76
2019-03-08T02:27:52.944Z,5.71
2019-03-08T02:30:23.835Z,5.67
2019-03-08T02:32:54.851Z,5.61
2019-03-08T02:35:25.744Z,5.65
2019-03-08T02:37:56.707Z,5.63
2019-03-08T02:40:29.752Z,5.57
2019-03-08T02:43:01.505Z,5.61
2019-03-08T02:45:32.477Z,5.62
2019-03-08T02:48:03.432Z,5.67
2019-03-08T02:50:34.443Z,5.64
2019-03-08T02:53:05.366Z,5.63
2019-03-08T02:55:36.459Z,5.61
2019-03-08T02:58:07.419Z,5.58
2019-03-08T03:00:44.520Z,5.58
2019-03-08T03:03:15.606Z,5.52
2019-03-08T03:05:46.536Z,5.49
2019-03-08T03:08:17.550Z,5.50
2019-03-08T03:10:48.446Z,5.52
2019-03-08T03:13:19.478Z,5.48
2019-03-08T03:15:51.230Z,5.51
2019-03-08T03:18:22.626Z,5.46
2019-03-08T03:20:53.534Z,5.42
2019-03-08T03:23:24.552Z,5.43
2019-03-08T03:25:55.451Z,5.42
2019-03-08T03:28:26.393Z,5.37
2019-03-08T03:30:57.696Z,5.42
2019-03-08T03:33:28.646Z,5.37
2019-03-08T03:35:59.646Z,5.34
2019-03-08T03:38:30.697Z,5.36
2019-03-08T03:41:01.711Z,5.27
2019-03-08T03:43:33.014Z,5.27
2019-03-08T03:46:03.903Z,5.24
2019-03-08T03:48:34.864Z,5.26
2019-03-08T03:51:05.782Z,5.23
2019-03-08T03:53:36.794Z,5.26
2019-03-08T03:56:08.129Z,5.26
2019-03-08T03:58:39.096Z,5.23
2019-03-08T04:01:17.668Z,5.24
2019-03-08T04:03:48.622Z,5.18
2019-03-08T04:06:19.517Z,5.22
2019-03-08T04:08:50.474Z,5.22
2019-03-08T04:11:21.374Z,5.28
2019-03-08T04:13:52.329Z,5.20
2019-03-08T04:16:24.169Z,5.20
2019-03-08T04:18:55.533Z,5.18
2019-03-08T04:21:26.361Z,5.14
2019-03-08T04:23:57.183Z,5.13
2019-03-08T04:26:29.197Z,5.17
2019-03-08T04:29:00.152Z,5.10
2019-03-08T04:31:31.444Z,5.17
2019-03-08T04:34:04.008Z,5.16
2019-03-08T04:36:35.106Z,5.16
2019-03-08T04:39:06.311Z,5.13
2019-03-08T04:41:37.449Z,5.18
2019-03-08T04:44:08.711Z,5.18
2019-03-08T04:46:39.768Z,5.19
2019-03-08T04:49:10.700Z,5.24
2019-03-08T04:51:41.693Z,5.22
2019-03-08T04:54:12.652Z,5.24
2019-03-08T04:56:43.720Z,5.30
2019-03-08T04:59:14.669Z,5.26
2019-03-08T05:01:45.576Z,5.28
2019-03-08T05:04:16.661Z,5.22
2019-03-08T05:06:47.560Z,5.25
2019-03-08T05:09:19.319Z,5.29
2019-03-08T05:11:50.224Z,5.21
2019-03-08T05:14:21.189Z,5.18
2019-03-08T05:16:53.005Z,5.20
2019-03-08T05:19:24.183Z,5.24
2019-03-08T05:21:55.187Z,5.18
2019-03-08T05:24:26.141Z,5.20
2019-03-08T05:26:57.120Z,5.29
2019-03-08T05:29:28.158Z,5.39
2019-03-08T05:31:59.079Z,5.50
2019-03-08T05:34:30.039Z,5.60
2019-03-08T05:37:01.027Z,5.62
2019-03-08T05:39:31.996Z,5.65
2019-03-08T05:42:02.906Z,5.74
2019-03-08T05:44:33.927Z,5.76
2019-03-08T05:47:04.943Z,5.99
2019-03-08T05:49:35.923Z,5.92
2019-03-08T05:52:06.819Z,6.02
2019-03-08T05:54:37.841Z,6.04
2019-03-08T05:57:08.786Z,6.13
2019-03-08T05:59:40.525Z,6.14
2019-03-08T06:02:11.407Z,6.26
2019-03-08T06:04:42.440Z,6.27
2019-03-08T06:07:13.375Z,6.26
2019-03-08T06:09:44.207Z,6.27
2019-03-08T06:12:15.386Z,6.47
2019-03-08T06:14:47.392Z,6.58
2019-03-08T06:17:19.293Z,6.58
2019-03-08T06:19:50.304Z,6.75
2019-03-08T06:22:21.308Z,6.77
2019-03-08T06:24:52.586Z,6.79
2019-03-08T06:27:23.523Z,6.78
2019-03-08T06:29:55.036Z,6.84
2019-03-08T06:32:25.985Z,6.86
2019-03-08T06:34:57.096Z,6.78
2019-03-08T06:37:29.316Z,6.82
2019-03-08T06:40:00.305Z,6.81
2019-03-08T06:42:31.214Z,6.94
2019-03-08T06:45:02.194Z,7.09
2019-03-08T06:47:33.235Z,7.02
2019-03-08T06:50:06.775Z,7.04
2019-03-08T06:52:37.738Z,7.22
2019-03-08T06:55:11.021Z,7.17
2019-03-08T06:57:42.000Z,7.26
2019-03-08T07:00:30.283Z,7.30
2019-03-08T07:03:01.355Z,7.39
2019-03-08T07:05:32.325Z,7.40
2019-03-08T07:08:03.236Z,7.52
2019-03-08T07:10:36.230Z,7.68
2019-03-08T07:13:07.136Z,7.70
2019-03-08T07:15:38.218Z,7.75
2019-03-08T07:18:12.871Z,7.73
2019-03-08T07:20:44.513Z,7.88
2019-03-08T07:23:27.702Z,7.90
2019-03-08T07:26:07.171Z,8.00
2019-03-08T07:28:43.590Z,8.11
2019-03-08T07:31:32.503Z,8.12
2019-03-08T07:34:05.197Z,8.39
2019-03-08T07:36:44.722Z,8.41
2019-03-08T07:39:23.251Z,8.61
2019-03-08T07:42:01.964Z,8.84
2019-03-08T07:44:34.572Z,8.88
2019-03-08T07:47:13.038Z,8.98
2019-03-08T07:49:48.218Z,9.14
2019-03-08T07:52:37.444Z,9.18
2019-03-08T07:55:19.543Z,9.27
2019-03-08T07:57:54.961Z,9.31
2019-03-08T08:00:27.580Z,9.41
2019-03-08T08:03:05.979Z,9.42
2019-03-08T08:05:58.260Z,9.52
2019-03-08T08:08:35.937Z,9.71
2019-03-08T08:11:08.528Z,9.64
2019-03-08T08:13:59.011Z,9.62
2019-03-08T08:16:31.685Z,9.75
2019-03-08T08:19:14.437Z,9.96
2019-03-08T08:22:04.195Z,10.09
2019-03-08T08:24:52.791Z,10.17
2019-03-08T08:27:25.337Z,10.34
2019-03-08T08:30:03.932Z,10.35
2019-03-08T08:32:40.788Z,10.55
2019-03-08T08:35:16.461Z,10.65
2019-03-08T08:37:55.467Z,10.67
2019-03-08T08:40:31.080Z,10.78
2019-03-08T08:43:04.176Z,10.78
2019-03-08T08:45:43.376Z,10.99
2019-03-08T08:48:24.952Z,11.34
2019-03-08T08:51:12.653Z,11.53
2019-03-08T08:54:03.597Z,11.88
2019-03-08T08:56:52.195Z,12.26
2019-03-08T08:59:39.778Z,12.28
2019-03-08T09:02:18.383Z,12.44
2019-03-08T09:04:53.913Z,12.48
2019-03-08T09:07:33.352Z,12.76
2019-03-08T09:10:08.848Z,12.88
2019-03-08T09:12:44.518Z,12.95
2019-03-08T09:15:17.350Z,13.02
2019-03-08T09:18:06.189Z,13.11
2019-03-08T09:20:39.830Z,13.24
2019-03-08T09:23:12.721Z,13.33
2019-03-08T09:26:01.660Z,13.27
2019-03-08T09:28:34.343Z,13.68
2019-03-08T09:31:18.998Z,13.94
2019-03-08T09:33:54.388Z,14.07
2019-03-08T09:36:32.798Z,14.14
2019-03-08T09:39:05.674Z,14.26
2019-03-08T09:41:57.493Z,14.43
2019-03-08T09:44:32.925Z,14.44
2019-03-08T09:47:05.493Z,14.57
2019-03-08T09:49:43.006Z,14.58
2019-03-08T09:52:15.480Z,14.59
2019-03-08T09:54:50.982Z,14.56
2019-03-08T09:57:32.255Z,14.43
2019-03-08T10:00:11.300Z,14.63
2019-03-08T10:02:56.267Z,14.74
2019-03-08T10:05:31.597Z,14.85
2019-03-08T10:08:20.479Z,14.96
2019-03-08T10:10:55.998Z,15.13
2019-03-08T10:13:28.624Z,15.00
2019-03-08T10:16:01.170Z,15.11
2019-03-08T10:18:33.919Z,15.31
2019-03-08T10:21:13.322Z,15.41
2019-03-08T10:23:57.532Z,15.62
2019-03-08T10:26:31.632Z,15.72
2019-03-08T10:29:13.594Z,15.79
2019-03-08T10:31:46.501Z,15.72
2019-03-08T10:34:25.375Z,15.59
2019-03-08T10:37:02.836Z,15.70
2019-03-08T10:39:41.709Z,15.58
2019-03-08T10:42:21.161Z,15.94
2019-03-08T10:44:53.976Z,16.16
2019-03-08T10:47:26.883Z,15.95
2019-03-08T10:50:20.499Z,16.05
2019-03-08T10:53:01.851Z,16.36
2019-03-08T10:55:40.285Z,16.67
2019-03-08T10:58:22.403Z,16.28
2019-03-08T11:00:58.138Z,16.46
2019-03-08T11:03:31.624Z,16.57
2019-03-08T11:06:21.747Z,16.59
2019-03-08T11:08:54.699Z,16.73
2019-03-08T11:11:30.322Z,16.83
2019-03-08T11:14:03.075Z,16.68
2019-03-08T11:16:52.055Z,16.67
2019-03-08T11:19:27.818Z,16.72
2019-03-08T11:22:11.383Z,17.05
2019-03-08T11:25:07.791Z,16.98
2019-03-08T11:27:33.631Z,17.06
2019-03-08T11:30:15.815Z,17.22
2019-03-08T11:33:06.793Z,17.27
2019-03-08T11:35:39.888Z,17.38
2019-03-08T11:38:14.848Z,17.63
2019-03-08T11:40:50.393Z,17.12
2019-03-08T11:43:35.470Z,17.06
2019-03-08T11:46:20.579Z,16.86
2019-03-08T11:48:56.214Z,16.69
2019-03-08T11:51:34.980Z,16.93
2019-03-08T11:54:11.242Z,16.65
2019-03-08T11:56:56.209Z,16.71
2019-03-08T11:59:36.667Z,16.71
2019-03-08T12:02:12.724Z,16.81
2019-03-08T12:04:45.602Z,16.66
2019-03-08T12:07:22.250Z,16.72
2019-03-08T12:10:03.915Z,16.71
2019-03-08T12:12:49.177Z,16.61
2019-03-08T12:15:37.365Z,16.56
2019-03-08T12:18:10.558Z,16.59
2019-03-08T12:20:46.568Z,16.35
2019-03-08T12:23:22.782Z,16.07
2019-03-08T12:26:12.069Z,16.07
2019-03-08T12:28:44.846Z,16.01
2019-03-08T12:31:17.784Z,15.90
2019-03-08T12:33:56.693Z,16.13
2019-03-08T12:36:29.434Z,16.18
2019-03-08T12:39:18.949Z,16.35
2019-03-08T12:41:51.736Z,16.41
2019-03-08T12:44:24.612Z,16.34
2019-03-08T12:46:57.500Z,16.55
2019-03-08T12:49:30.411Z,16.42
2019-03-08T12:52:03.254Z,16.27
2019-03-08T12:54:36.361Z,16.21
2019-03-08T12:57:15.558Z,16.01
2019-03-08T12:59:54.806Z,16.04
2019-03-08T13:02:36.547Z,15.98
2019-03-08T13:05:09.652Z,15.82
2019-03-08T13:08:00.733Z,15.70
2019-03-08T13:10:32.279Z,15.62
2019-03-08T13:13:03.596Z,15.50
2019-03-08T13:15:34.965Z,15.54
2019-03-08T13:18:06.433Z,15.33
2019-03-08T13:20:38.522Z,15.25
2019-03-08T13:23:09.943Z,15.23
2019-03-08T13:25:42.239Z,15.21
2019-03-08T13:28:13.619Z,15.23
2019-03-08T13:30:45.023Z,15.19
2019-03-08T13:33:16.570Z,15.07
2019-03-08T13:35:47.844Z,15.05
2019-03-08T13:38:18.847Z,15.01
2019-03-08T13:40:49.801Z,15.03
2019-03-08T13:43:21.001Z,15.06
2019-03-08T13:45:53.817Z,14.99
2019-03-08T13:48:25.240Z,14.90
2019-03-08T13:50:56.278Z,14.71
2019-03-08T13:53:27.255Z,14.64
2019-03-08T13:55:58.507Z,14.71
2019-03-08T13:58:29.592Z,14.55
2019-03-08T14:01:00.559Z,14.53
2019-03-08T14:03:32.826Z,14.47
2019-03-08T14:06:03.794Z,14.38
2019-03-08T14:08:34.706Z,14.44
2019-03-08T14:11:05.866Z,14.36
2019-03-08T14:13:37.857Z,14.33
2019-03-08T14:16:08.994Z,14.40
2019-03-08T14:18:40.055Z,14.37
2019-03-08T14:21:11.021Z,14.43
2019-03-08T14:23:42.126Z,14.40
2019-03-08T14:26:14.089Z,14.38
2019-03-08T14:28:45.165Z,14.38
2019-03-08T14:31:23.529Z,14.37
2019-03-08T14:33:54.896Z,14.41
2019-03-08T14:36:26.163Z,14.38
2019-03-08T14:38:57.298Z,14.26
2019-03-08T14:41:47.836Z,14.17
2019-03-08T14:44:26.463Z,14.10
2019-03-08T14:46:57.579Z,14.09
2019-03-08T14:49:28.680Z,14.13
2019-03-08T14:51:59.792Z,14.10
2019-03-08T14:54:30.741Z,14.05
2019-03-08T14:57:01.839Z,13.96
2019-03-08T14:59:32.933Z,13.93
2019-03-08T15:02:03.977Z,13.90
2019-03-08T15:04:35.008Z,13.79
2019-03-08T15:07:06.023Z,13.70
2019-03-08T15:09:37.167Z,13.59
2019-03-08T15:12:16.314Z,13.55
2019-03-08T15:14:41.349Z,13.54
2019-03-08T15:17:13.357Z,13.53
2019-03-08T15:19:45.414Z,13.52
2019-03-08T15:22:17.560Z,13.45
2019-03-08T15:24:48.723Z,13.51
2019-03-08T15:27:22.990Z,13.47
2019-03-08T15:29:54.901Z,13.42
2019-03-08T15:32:29.153Z,13.34
2019-03-08T15:35:01.709Z,13.24
2019-03-08T15:37:33.053Z,13.24
2019-03-08T15:40:05.092Z,13.23
2019-03-08T15:42:36.908Z,13.16
2019-03-08T15:45:10.665Z,13.10
2019-03-08T15:47:41.689Z,13.02
2019-03-08T15:50:15.377Z,13.00
2019-03-08T15:52:46.638Z,12.95
2019-03-08T15:55:18.887Z,12.89
2019-03-08T15:57:50.271Z,12.84
2019-03-08T16:00:22.188Z,12.80
2019-03-08T16:02:55.621Z,12.78
2019-03-08T16:05:28.181Z,12.71
2019-03-08T16:08:01.854Z,12.64
2019-03-08T16:10:32.138Z,12.62
2019-03-08T16:13:03.631Z,12.63
2019-03-08T16:15:47.547Z,12.57
2019-03-08T16:18:23.359Z,12.48
2019-03-08T16:20:57.605Z,12.53
2019-03-08T16:23:32.576Z,12.45
2019-03-08T16:26:09.869Z,12.45
2019-03-08T16:28:47.309Z,12.45
2019-03-08T16:31:35.440Z,12.40
2019-03-08T16:34:14.458Z,12.49
2019-03-08T16:36:55.307Z,12.47
2019-03-08T16:39:31.715Z,12.46
2019-03-08T16:42:15.370Z,12.46
2019-03-08T16:44:52.654Z,12.49
2019-03-08T16:47:47.043Z,12.43
2019-03-08T16:50:22.289Z,12.49
2019-03-08T16:53:00.173Z,12.36
2019-03-08T16:55:36.700Z,12.49
2019-03-08T16:58:25.503Z,12.45
2019-03-08T17:01:11.129Z,12.49
2019-03-08T17:03:59.455Z,12.54
2019-03-08T17:06:40.188Z,12.56
2019-03-08T17:09:17.596Z,12.56
2019-03-08T17:11:53.711Z,12.56
2019-03-08T17:14:35.357Z,12.57
2019-03-08T17:17:27.268Z,12.53
2019-03-08T17:20:07.150Z,12.63
2019-03-08T17:22:42.942Z,12.58
2019-03-08T17:25:23.632Z,12.63
2019-03-08T17:28:10.081Z,12.81
2019-03-08T17:30:44.370Z,12.84
2019-03-08T17:33:37.691Z,12.88
2019-03-08T17:36:20.054Z,12.93
2019-03-08T17:38:54.967Z,13.26
2019-03-08T17:41:32.483Z,13.29
2019-03-08T17:44:20.483Z,13.48
2019-03-08T17:46:56.133Z,13.65
2019-03-08T17:49:46.527Z,13.62
2019-03-08T17:52:25.601Z,13.78
2019-03-08T17:55:04.660Z,13.82
2019-03-08T17:57:55.562Z,13.70
2019-03-08T18:00:29.896Z,13.67
2019-03-08T18:03:11.671Z,13.63
2019-03-08T18:05:49.631Z,13.65
2019-03-08T18:08:25.164Z,13.61
2019-03-08T18:11:09.740Z,13.82
2019-03-08T18:13:46.850Z,13.61
2019-03-08T18:16:36.546Z,13.32
2019-03-08T18:19:28.311Z,13.22
2019-03-08T18:22:14.419Z,13.13
2019-03-08T18:25:03.995Z,13.10
2019-03-08T18:27:42.211Z,13.05
2019-03-08T18:30:34.732Z,12.99
2019-03-08T18:33:11.755Z,12.95
2019-03-08T18:36:11.963Z,12.96
2019-03-08T18:38:46.668Z,12.90
2019-03-08T18:41:43.693Z,12.73
2019-03-08T18:44:19.887Z,12.66
2019-03-08T18:46:58.556Z,12.53
2019-03-08T18:49:38.545Z,12.43
2019-03-08T18:52:13.148Z,12.29
2019-03-08T18:54:53.897Z,12.25
2019-03-08T18:57:27.629Z,12.20
2019-03-08T19:00:00.635Z,12.11
2019-03-08T19:02:33.375Z,12.19
2019-03-08T19:05:08.088Z,12.10
2019-03-08T19:07:52.075Z,12.02
2019-03-08T19:10:32.396Z,12.06
2019-03-08T19:13:05.139Z,12.09
2019-03-08T19:15:40.829Z,12.05
2019-03-08T19:18:30.052Z,12.03
2019-03-08T19:21:11.899Z,12.00
2019-03-08T19:23:44.566Z,12.03
2019-03-08T19:26:19.958Z,11.79
2019-03-08T19:28:52.675Z,11.74
2019-03-08T19:31:29.529Z,11.62
2019-03-08T19:34:15.389Z,11.56
2019-03-08T19:37:06.593Z,11.52
2019-03-08T19:39:39.326Z,11.49
2019-03-08T19:42:14.835Z,11.48
2019-03-08T19:44:53.244Z,11.54
2019-03-08T19:47:37.750Z,11.67
2019-03-08T19:50:11.804Z,11.76
2019-03-08T19:52:44.669Z,11.82
2019-03-08T19:55:17.473Z,11.73
2019-03-08T19:57:54.405Z,11.72
2019-03-08T20:00:44.399Z,11.73
2019-03-08T20:03:20.515Z,11.70
2019-03-08T20:06:05.287Z,11.67
2019-03-08T20:08:47.556Z,11.62
2019-03-08T20:11:32.514Z,11.60
2019-03-08T20:14:25.320Z,11.55
2019-03-08T20:17:04.651Z,11.47
2019-03-08T20:19:55.293Z,11.55
2019-03-08T20:22:29.098Z,11.48
2019-03-08T20:25:19.935Z,11.47
2019-03-08T20:28:00.075Z,11.43
2019-03-08T20:30:49.447Z,11.39
2019-03-08T20:33:44.559Z,11.35
2019-03-08T20:36:39.017Z,11.33
2019-03-08T20:39:33.610Z,11.29
2019-03-08T20:42:09.316Z,11.31
2019-03-08T20:44:44.568Z,11.28
2019-03-08T20:47:36.176Z,11.33
2019-03-08T20:50:20.861Z,11.35
2019-03-08T20:53:01.271Z,11.31
2019-03-08T20:55:42.668Z,11.38
2019-03-08T20:58:16.137Z,11.39
2019-03-08T21:00:53.866Z,11.42
2019-03-08T21:03:41.778Z,11.41
2019-03-08T21:09:21.701Z,11.60
2019-03-08T21:14:51.931Z,11.61
2019-03-08T21:17:38.494Z,11.68
2019-03-08T21:20:28.917Z,11.73
2019-03-08T21:23:01.855Z,11.80
2019-03-08T21:25:42.406Z,11.89
2019-03-08T21:28:20.642Z,11.93
2019-03-08T21:30:55.660Z,12.06
2019-03-08T21:33:26.892Z,12.06
2019-03-08T21:35:59.997Z,12.05
2019-03-08T21:38:33.384Z,11.96
2019-03-08T21:41:04.747Z,12.00
2019-03-08T21:43:46.998Z,11.92
2019-03-08T21:46:27.256Z,11.86
2019-03-08T21:49:00.345Z,11.87
2019-03-08T21:51:33.598Z,11.99
2019-03-08T21:54:26.180Z,11.97
2019-03-08T21:57:18.305Z,11.78
2019-03-08T22:00:26.087Z,11.80
2019-03-08T22:03:08.260Z,11.74
2019-03-08T22:05:43.410Z,11.66
2019-03-08T22:08:17.761Z,11.57
2019-03-08T22:11:05.949Z,11.60
2019-03-08T22:13:41.233Z,11.79
2019-03-08T22:16:12.323Z,11.75
2019-03-08T22:18:43.439Z,11.77
2019-03-08T22:21:15.262Z,11.73
2019-03-08T22:23:49.242Z,11.72
2019-03-08T22:26:20.222Z,11.68
2019-03-08T22:28:54.355Z,11.58
2019-03-08T22:31:25.275Z,11.60
2019-03-08T22:33:56.301Z,11.54
2019-03-08T22:36:27.494Z,11.48
2019-03-08T22:38:59.336Z,11.51
2019-03-08T22:41:30.461Z,11.44
2019-03-08T22:44:01.419Z,11.41
2019-03-08T22:46:32.342Z,11.36
2019-03-08T22:49:06.047Z,11.49
2019-03-08T22:51:37.093Z,11.36
2019-03-08T22:54:08.257Z,11.36
2019-03-08T22:56:39.274Z,11.30
2019-03-08T22:59:10.547Z,11.29
2019-03-08T23:01:43.064Z,11.22
2019-03-08T23:04:15.392Z,11.25
2019-03-08T23:06:51.216Z,11.16
2019-03-08T23:09:24.103Z,11.10
2019-03-08T23:11:57.051Z,11.00
2019-03-08T23:14:29.739Z,10.90
2019-03-08T23:17:00.714Z,10.86
2019-03-08T23:19:33.433Z,10.88
2019-03-08T23:22:04.368Z,10.84
2019-03-08T23:24:37.004Z,10.82
2019-03-08T23:27:09.552Z,10.68
2019-03-08T23:29:44.907Z,10.60
2019-03-08T23:32:22.161Z,10.67
2019-03-08T23:34:53.095Z,10.66
2019-03-08T23:37:27.485Z,10.54
2019-03-08T23:39:59.369Z,10.50
2019-03-08T23:42:35.073Z,10.62
2019-03-08T23:45:10.489Z,10.68
2019-03-08T23:47:41.471Z,10.52
2019-03-08T23:50:12.392Z,10.44
2019-03-08T23:52:45.228Z,10.43
2019-03-08T23:55:16.287Z,10.42
2019-03-08T23:57:47.549Z,10.33
